Time;durP1;ratioP1;P1;durP2;ratioP2;P2;SDS_P1;SDS_P2;PMS_P1;PMS_P2;Temp;Humidity;BMP_temperature;BMP_pressure;BME280_temperature;BME280_humidity;BME280_pressure;Samples;Min_cycle;Max_cycle;Signal;HPM_P1;HPM_P2
2022/01/30 00:02:22;;;;;;;3.63;3.42;;;6.20;99.90;;;;;;5080207;28;20262;-69
2022/01/30 00:04:49;;;;;;;3.22;3.03;;;6.20;99.90;;;;;;5080515;28;20627;-69
2022/01/30 00:07:15;;;;;;;3.70;3.40;;;6.20;99.90;;;;;;5081067;28;20212;-68
2022/01/30 00:09:42;;;;;;;2.95;2.75;;;6.20;99.90;;;;;;5079084;28;20204;-69
2022/01/30 00:12:09;;;;;;;3.17;2.90;;;6.20;99.90;;;;;;5078767;28;20203;-68
2022/01/30 00:14:38;;;;;;;3.00;2.80;;;6.20;99.90;;;;;;5079139;28;20207;-68
2022/01/30 00:17:14;;;;;;;3.55;3.28;;;6.20;99.90;;;;;;5079273;28;20204;-69
2022/01/30 00:24:48;;;;;;;3.90;3.60;;;6.20;99.90;;;;;;5080594;28;20200;-68
2022/01/30 00:27:19;;;;;;;4.28;3.47;;;6.20;99.90;;;;;;5080581;28;20574;-69
2022/01/30 00:29:47;;;;;;;7.72;4.40;;;6.10;99.90;;;;;;5078806;28;20208;-69
2022/01/30 00:32:13;;;;;;;4.55;4.10;;;6.20;99.90;;;;;;5078982;28;20196;-69
2022/01/30 00:34:40;;;;;;;3.95;3.65;;;6.20;99.90;;;;;;5078283;28;20204;-69
2022/01/30 00:37:06;;;;;;;4.43;4.13;;;6.10;99.90;;;;;;5079272;28;20207;-70
2022/01/30 00:39:32;;;;;;;4.63;4.28;;;6.20;99.90;;;;;;5079275;28;20601;-69
2022/01/30 00:41:59;;;;;;;5.00;4.60;;;6.20;99.90;;;;;;5080079;28;20306;-69
2022/01/30 00:44:25;;;;;;;5.82;4.50;;;6.20;99.90;;;;;;5080711;28;20200;-69
2022/01/30 00:46:52;;;;;;;4.57;4.20;;;6.30;99.90;;;;;;5079882;28;20647;-70
2022/01/30 00:49:18;;;;;;;3.90;3.60;;;6.30;99.90;;;;;;5078295;28;20195;-69
2022/01/30 00:51:44;;;;;;;4.70;4.40;;;6.40;99.90;;;;;;5078673;28;20196;-69
2022/01/30 00:54:11;;;;;;;4.65;4.35;;;6.40;99.90;;;;;;5078782;28;20243;-69
2022/01/30 00:56:37;;;;;;;4.88;4.47;;;6.30;99.90;;;;;;5078062;28;20536;-69
2022/01/30 00:59:03;;;;;;;5.05;4.55;;;6.30;99.90;;;;;;5076241;28;20196;-70
2022/01/30 01:01:32;;;;;;;5.15;4.65;;;6.30;99.90;;;;;;5076763;28;20230;-69
2022/01/30 01:03:59;;;;;;;5.03;4.63;;;6.30;99.90;;;;;;5074758;28;20207;-69
2022/01/30 01:06:25;;;;;;;5.43;4.95;;;6.30;99.90;;;;;;5078138;28;20220;-69
2022/01/30 01:08:57;;;;;;;4.82;4.32;;;6.30;99.90;;;;;;5078219;28;20640;-70
2022/01/30 01:24:50;;;;;;;5.03;4.22;;;6.20;99.90;;;;;;5078400;28;20635;-69
2022/01/30 01:27:16;;;;;;;4.22;3.97;;;6.20;99.90;;;;;;5078590;28;20279;-70
2022/01/30 01:29:43;;;;;;;3.70;3.40;;;6.20;99.90;;;;;;5077369;28;20547;-70
2022/01/30 01:32:09;;;;;;;4.18;3.70;;;6.20;99.90;;;;;;5077858;28;20207;-69
2022/01/30 01:34:38;;;;;;;5.25;4.85;;;6.20;99.90;;;;;;5076062;28;20204;-69
2022/01/30 01:37:09;;;;;;;8.63;6.70;;;6.20;99.90;;;;;;5075173;28;20276;-70
2022/01/30 01:39:36;;;;;;;4.70;3.78;;;6.20;99.90;;;;;;5075350;28;20208;-70
2022/01/30 01:42:03;;;;;;;3.60;3.40;;;6.20;99.90;;;;;;5076471;28;20223;-69
2022/01/30 01:44:38;;;;;;;4.47;4.13;;;6.20;99.90;;;;;;5076882;28;20200;-69
2022/01/30 01:47:08;;;;;;;3.40;3.20;;;6.20;99.90;;;;;;5076299;28;20215;-68
2022/01/30 01:49:34;;;;;;;3.72;3.38;;;6.20;99.90;;;;;;5077149;28;20227;-70
2022/01/30 01:52:18;;;;;;;3.97;3.75;;;6.20;99.90;;;;;;5076238;28;20210;-68
2022/01/30 01:55:04;;;;;;;3.30;3.10;;;6.20;99.90;;;;;;5074980;28;20249;-69
2022/01/30 01:57:30;;;;;;;3.38;3.17;;;6.30;99.90;;;;;;5075622;28;20249;-69
2022/01/30 01:59:56;;;;;;;3.45;3.20;;;6.30;99.90;;;;;;5076595;28;20284;-68
2022/01/30 02:02:24;;;;;;;3.78;3.47;;;6.30;99.90;;;;;;5075200;28;20239;-69
2022/01/30 02:04:51;;;;;;;3.25;3.05;;;6.30;99.90;;;;;;5076417;28;20200;-68
2022/01/30 02:10:03;;;;;;;2.80;2.60;;;6.40;99.90;;;;;;5075830;28;20188;-70
2022/01/30 02:12:42;;;;;;;3.20;2.95;;;6.30;99.90;;;;;;5074920;28;20203;-68
2022/01/30 02:26:00;;;;;;;3.25;2.95;;;6.30;99.90;;;;;;5074954;28;20184;-72
2022/01/30 02:28:29;;;;;;;4.20;3.80;;;6.30;99.90;;;;;;5074502;28;20200;-69
2022/01/30 02:31:03;;;;;;;3.10;2.80;;;6.20;99.90;;;;;;5074967;28;20200;-69
2022/01/30 02:33:30;;;;;;;3.97;3.67;;;6.20;99.90;;;;;;5074658;28;20270;-68
2022/01/30 02:35:56;;;;;;;4.07;3.78;;;6.20;99.90;;;;;;5074180;28;20203;-68
2022/01/30 02:38:24;;;;;;;3.92;3.63;;;6.20;99.90;;;;;;5074283;28;20212;-68
2022/01/30 02:40:54;;;;;;;3.50;3.17;;;6.20;99.90;;;;;;5074150;28;20682;-68
2022/01/30 02:43:26;;;;;;;3.50;3.30;;;6.30;99.90;;;;;;5074567;28;20204;-69
2022/01/30 02:46:28;;;;;;;3.20;3.00;;;6.30;99.90;;;;;;5074249;28;20196;-69
2022/01/30 02:48:56;;;;;;;3.17;2.97;;;6.40;99.90;;;;;;5072936;28;20203;-68
2022/01/30 02:51:32;;;;;;;3.67;3.38;;;6.40;99.90;;;;;;5073515;28;20208;-68
2022/01/30 02:54:05;;;;;;;3.60;3.40;;;6.40;99.90;;;;;;5073836;28;20628;-68
2022/01/30 02:56:34;;;;;;;3.03;2.78;;;6.50;99.90;;;;;;5075008;28;20268;-71
2022/01/30 02:59:00;;;;;;;4.18;3.53;;;6.50;99.90;;;;;;5074617;28;20589;-69
2022/01/30 03:01:27;;;;;;;4.13;3.80;;;6.40;99.90;;;;;;5074533;28;20227;-69
2022/01/30 03:03:53;;;;;;;3.20;3.00;;;6.40;99.90;;;;;;5074619;28;20258;-67
2022/01/30 03:06:20;;;;;;;7.15;4.43;;;6.50;99.90;;;;;;5074808;28;20219;-68
2022/01/30 03:08:46;;;;;;;4.72;3.60;;;6.50;99.90;;;;;;5075179;28;20195;-67
2022/01/30 03:11:12;;;;;;;3.20;2.90;;;6.40;99.90;;;;;;5074492;28;20298;-69
2022/01/30 03:13:39;;;;;;;3.35;3.13;;;6.40;99.90;;;;;;5074061;28;20560;-67
2022/01/30 03:16:05;;;;;;;3.70;3.30;;;6.40;99.90;;;;;;5073892;28;20204;-68
2022/01/30 03:18:32;;;;;;;3.65;3.20;;;6.50;99.90;;;;;;5073803;28;20215;-68
2022/01/30 03:20:59;;;;;;;4.75;3.10;;;6.40;99.90;;;;;;5073825;28;20210;-68
2022/01/30 03:23:26;;;;;;;2.95;2.70;;;6.40;99.90;;;;;;5073443;28;20203;-68
2022/01/30 03:25:57;;;;;;;2.88;2.67;;;6.40;99.90;;;;;;5073010;28;20208;-68
2022/01/30 03:28:24;;;;;;;3.72;3.00;;;6.40;99.90;;;;;;5073986;28;20252;-68
2022/01/30 03:30:54;;;;;;;2.97;2.67;;;6.40;99.90;;;;;;5073537;28;20620;-68
2022/01/30 03:33:21;;;;;;;3.40;3.20;;;6.30;99.90;;;;;;5073572;28;20184;-68
2022/01/30 03:35:48;;;;;;;3.00;2.80;;;6.30;99.90;;;;;;5073360;28;20204;-68
2022/01/30 03:38:15;;;;;;;3.35;3.05;;;6.30;99.90;;;;;;5073043;28;20200;-68
2022/01/30 03:40:43;;;;;;;4.30;3.85;;;6.30;99.90;;;;;;5073256;28;20204;-69
2022/01/30 03:43:09;;;;;;;3.88;3.50;;;6.30;99.90;;;;;;5073257;28;20269;-69
2022/01/30 03:45:36;;;;;;;3.45;3.25;;;6.20;99.90;;;;;;5073632;28;20200;-68
2022/01/30 03:48:03;;;;;;;3.40;3.08;;;6.20;99.90;;;;;;5073522;28;20204;-68
2022/01/30 03:50:30;;;;;;;10.18;3.45;;;6.20;99.90;;;;;;5072057;28;20257;-68
2022/01/30 03:52:56;;;;;;;5.88;3.75;;;6.20;99.90;;;;;;5073411;28;20288;-68
2022/01/30 03:55:24;;;;;;;4.00;3.10;;;6.10;99.90;;;;;;5072225;28;20223;-68
2022/01/30 03:57:50;;;;;;;6.85;3.95;;;6.10;99.90;;;;;;5073766;28;20200;-68
2022/01/30 04:00:18;;;;;;;3.90;3.60;;;6.10;99.90;;;;;;5073739;28;20207;-68
2022/01/30 04:02:44;;;;;;;4.70;4.13;;;6.00;99.90;;;;;;5073686;28;20216;-68
2022/01/30 04:05:11;;;;;;;8.90;4.50;;;6.00;99.90;;;;;;5073800;28;20204;-68
2022/01/30 04:07:38;;;;;;;10.05;5.47;;;5.90;99.90;;;;;;5073255;28;20242;-68
2022/01/30 04:10:07;;;;;;;9.65;4.72;;;5.90;99.90;;;;;;5071690;28;20697;-68
2022/01/30 04:12:34;;;;;;;5.80;4.75;;;5.90;99.90;;;;;;5073047;28;20257;-68
2022/01/30 04:15:01;;;;;;;5.22;4.55;;;5.80;99.90;;;;;;5071903;28;20204;-68
2022/01/30 04:17:28;;;;;;;7.88;4.45;;;5.80;99.90;;;;;;5073023;28;20253;-68
2022/01/30 04:19:54;;;;;;;6.13;4.63;;;5.70;99.90;;;;;;5071449;28;20616;-68
2022/01/30 04:22:21;;;;;;;8.23;5.03;;;5.70;99.90;;;;;;5073136;28;20228;-68
2022/01/30 04:24:47;;;;;;;6.05;4.45;;;5.70;99.90;;;;;;5072928;28;20207;-68
2022/01/30 04:27:14;;;;;;;5.60;4.68;;;5.80;99.90;;;;;;5072405;28;20203;-68
2022/01/30 04:29:40;;;;;;;6.18;4.68;;;5.80;99.90;;;;;;5072386;28;20256;-68
2022/01/30 04:32:08;;;;;;;6.22;5.10;;;5.70;99.90;;;;;;5072999;28;20200;-67
2022/01/30 04:34:35;;;;;;;4.40;4.00;;;5.70;99.90;;;;;;5072600;28;20207;-68
2022/01/30 04:37:04;;;;;;;13.27;6.30;;;5.60;99.90;;;;;;5072945;28;20207;-68
2022/01/30 04:56:23;;;;;;;286.17;189.38;;;5.60;99.90;;;;;;5077218;28;20191;-68
2022/01/30 05:03:42;;;;;;;11.00;6.25;;;5.60;99.90;;;;;;5076466;28;20216;-68
2022/01/30 05:06:13;;;;;;;10.68;6.28;;;5.60;99.90;;;;;;5077218;28;20220;-68
2022/01/30 05:08:40;;;;;;;6.60;5.22;;;5.60;99.90;;;;;;5077385;28;20611;-68
2022/01/30 05:11:08;;;;;;;8.50;5.25;;;5.50;99.90;;;;;;5076833;28;20655;-67
2022/01/30 05:13:40;;;;;;;8.10;4.55;;;5.50;99.90;;;;;;5076204;28;20556;-67
2022/01/30 05:16:07;;;;;;;9.20;4.90;;;5.50;99.90;;;;;;5076884;28;20204;-67
2022/01/30 05:18:33;;;;;;;23.20;6.85;;;5.50;99.90;;;;;;5076999;28;20203;-69
2022/01/30 05:21:00;;;;;;;12.82;5.50;;;5.50;99.90;;;;;;5077919;28;20207;-69
2022/01/30 05:23:27;;;;;;;8.93;5.07;;;5.50;99.90;;;;;;5078247;28;20227;-69
2022/01/30 05:25:54;;;;;;;11.07;4.43;;;5.50;99.90;;;;;;5078022;28;20196;-68
2022/01/30 05:28:22;;;;;;;14.13;4.93;;;5.40;99.90;;;;;;5077429;28;20200;-68
2022/01/30 05:30:49;;;;;;;15.80;5.25;;;5.40;99.90;;;;;;5077469;28;20199;-68
2022/01/30 05:33:16;;;;;;;13.75;4.75;;;5.30;99.90;;;;;;5076802;28;20207;-68
2022/01/30 05:35:42;;;;;;;8.23;5.13;;;5.30;99.90;;;;;;5077880;28;20215;-69
2022/01/30 05:38:09;;;;;;;10.40;4.40;;;5.20;99.90;;;;;;5077651;28;20225;-70
2022/01/30 05:40:36;;;;;;;11.40;4.28;;;5.20;99.90;;;;;;5078013;28;20731;-70
2022/01/30 05:43:04;;;;;;;12.55;4.57;;;5.20;99.90;;;;;;5076512;28;20226;-70
2022/01/30 05:45:37;;;;;;;11.95;4.28;;;5.30;99.90;;;;;;5077820;28;20257;-70
2022/01/30 05:48:09;;;;;;;12.52;4.10;;;5.30;99.90;;;;;;5076572;28;20200;-70
2022/01/30 05:50:36;;;;;;;12.68;4.93;;;5.20;99.90;;;;;;5075505;28;20615;-69
2022/01/30 05:53:03;;;;;;;13.15;3.90;;;5.20;99.90;;;;;;5073455;28;20322;-70
2022/01/30 05:55:31;;;;;;;11.65;4.10;;;5.10;99.90;;;;;;5075206;28;20616;-69
2022/01/30 05:57:59;;;;;;;15.35;4.38;;;5.10;99.90;;;;;;5075244;28;20210;-70
2022/01/30 06:00:26;;;;;;;13.93;4.35;;;5.10;99.90;;;;;;5075865;28;20618;-70
2022/01/30 06:02:52;;;;;;;14.25;4.13;;;5.10;99.90;;;;;;5075575;28;20231;-70
2022/01/30 06:05:21;;;;;;;10.80;3.50;;;5.10;99.90;;;;;;5075762;28;20246;-69
2022/01/30 06:07:52;;;;;;;12.45;3.90;;;5.10;99.90;;;;;;5075375;28;20269;-69
2022/01/30 06:10:21;;;;;;;9.27;3.38;;;5.00;99.90;;;;;;5075682;28;20204;-70
2022/01/30 06:12:48;;;;;;;13.60;4.40;;;5.00;99.90;;;;;;5076654;28;20280;-70
2022/01/30 06:15:15;;;;;;;11.48;5.13;;;5.10;99.90;;;;;;5075567;28;20207;-69
2022/01/30 06:17:42;;;;;;;19.85;5.28;;;5.10;99.90;;;;;;5075684;28;20260;-71
2022/01/30 06:20:09;;;;;;;13.73;4.65;;;5.00;99.90;;;;;;5075393;28;20204;-69
2022/01/30 06:22:37;;;;;;;17.13;4.85;;;4.90;99.90;;;;;;5075040;28;20227;-69
2022/01/30 06:25:05;;;;;;;9.43;3.72;;;4.90;99.90;;;;;;5075407;28;20196;-70
2022/01/30 06:27:32;;;;;;;12.20;4.28;;;5.00;99.90;;;;;;5075084;28;20208;-70
2022/01/30 06:29:58;;;;;;;9.45;3.92;;;4.90;99.90;;;;;;5075531;28;20286;-70
2022/01/30 06:32:25;;;;;;;14.27;4.00;;;4.90;99.90;;;;;;5076089;28;20206;-70
2022/01/30 06:34:51;;;;;;;19.98;3.78;;;4.90;99.90;;;;;;5075170;28;20204;-69
2022/01/30 06:37:18;;;;;;;11.75;3.60;;;4.90;99.90;;;;;;5074559;28;20200;-69
2022/01/30 06:39:44;;;;;;;13.07;4.82;;;4.90;99.90;;;;;;5075228;28;20200;-70
2022/01/30 06:42:11;;;;;;;15.20;3.42;;;4.90;99.90;;;;;;5073049;28;20224;-70
2022/01/30 06:44:38;;;;;;;21.40;4.75;;;4.80;99.90;;;;;;5074367;28;20261;-69
2022/01/30 06:47:05;;;;;;;19.83;4.40;;;4.70;99.90;;;;;;5074281;28;20212;-70
2022/01/30 06:49:32;;;;;;;11.73;4.95;;;4.70;99.90;;;;;;5074926;28;20200;-70
2022/01/30 06:51:58;;;;;;;13.18;4.78;;;4.60;99.90;;;;;;5073542;28;20208;-70
2022/01/30 06:54:25;;;;;;;15.00;4.68;;;4.60;99.90;;;;;;5075107;28;20683;-70
2022/01/30 06:56:51;;;;;;;14.93;5.28;;;4.50;99.90;;;;;;5075078;28;20212;-69
2022/01/30 06:59:18;;;;;;;17.88;5.22;;;4.50;99.90;;;;;;5075272;28;20257;-70
2022/01/30 07:01:44;;;;;;;16.02;4.63;;;4.40;99.90;;;;;;5073962;28;20204;-70
2022/01/30 07:04:12;;;;;;;12.75;4.47;;;4.30;99.90;;;;;;5075689;28;20200;-70
2022/01/30 07:06:39;;;;;;;16.50;4.25;;;4.30;99.90;;;;;;5075987;28;20224;-70
2022/01/30 07:09:05;;;;;;;16.60;4.63;;;4.30;99.90;;;;;;5075458;28;20199;-70
2022/01/30 07:11:31;;;;;;;15.07;4.00;;;4.30;99.90;;;;;;5075037;28;20234;-69
2022/01/30 07:13:58;;;;;;;13.35;4.15;;;4.20;99.90;;;;;;5074891;28;20261;-70
2022/01/30 07:16:24;;;;;;;23.13;7.57;;;4.20;99.90;;;;;;5075049;28;20675;-69
2022/01/30 07:18:51;;;;;;;36.53;17.08;;;4.20;99.90;;;;;;5074760;28;20260;-69
2022/01/30 07:21:17;;;;;;;23.58;6.40;;;4.10;99.90;;;;;;5074363;28;20204;-68
2022/01/30 07:23:44;;;;;;;15.80;5.00;;;4.00;99.90;;;;;;5074862;28;20242;-68
2022/01/30 07:26:10;;;;;;;17.00;10.02;;;3.90;99.90;;;;;;5074671;28;20196;-71
2022/01/30 07:28:37;;;;;;;17.38;7.63;;;3.90;99.90;;;;;;5074559;28;20211;-69
2022/01/30 07:31:03;;;;;;;18.15;6.60;;;3.90;99.90;;;;;;5074584;28;20604;-68
2022/01/30 07:33:30;;;;;;;17.05;6.50;;;3.80;99.90;;;;;;5074557;28;20265;-68
2022/01/30 07:35:57;;;;;;;16.38;6.40;;;3.80;99.90;;;;;;5074934;28;20655;-69
2022/01/30 07:38:24;;;;;;;23.77;8.60;;;3.80;99.90;;;;;;5074757;28;20265;-68
2022/01/30 07:40:50;;;;;;;21.98;7.97;;;3.90;99.90;;;;;;5075270;28;20262;-69
2022/01/30 07:43:17;;;;;;;14.18;8.25;;;3.90;99.90;;;;;;5074506;28;20690;-69
2022/01/30 07:45:43;;;;;;;22.00;8.05;;;4.00;99.90;;;;;;5074968;28;20196;-72
2022/01/30 07:48:10;;;;;;;18.25;8.20;;;4.00;99.90;;;;;;5074116;28;20196;-69
2022/01/30 07:50:36;;;;;;;18.52;8.68;;;4.10;99.90;;;;;;5073945;28;20252;-70
2022/01/30 07:53:03;;;;;;;20.95;7.15;;;4.10;99.90;;;;;;5073754;28;20268;-69
2022/01/30 07:55:29;;;;;;;19.65;11.55;;;4.20;99.90;;;;;;5074144;28;20609;-69
2022/01/30 07:57:56;;;;;;;17.60;8.10;;;4.30;99.90;;;;;;5074125;28;20200;-69
2022/01/30 08:00:23;;;;;;;18.33;8.93;;;4.30;99.90;;;;;;5073830;28;20208;-70
2022/01/30 08:02:50;;;;;;;15.27;7.85;;;4.40;99.90;;;;;;5073265;28;20220;-70
2022/01/30 08:05:16;;;;;;;21.30;9.90;;;4.40;99.90;;;;;;5073877;28;20203;-70
2022/01/30 08:07:45;;;;;;;14.98;7.95;;;4.40;99.90;;;;;;5073477;28;20228;-70
2022/01/30 08:10:11;;;;;;;19.63;6.78;;;4.50;99.90;;;;;;5073543;28;20204;-70
2022/01/30 08:12:38;;;;;;;10.75;6.68;;;4.50;99.90;;;;;;5075063;28;20607;-70
2022/01/30 08:15:05;;;;;;;22.15;5.43;;;4.50;99.90;;;;;;5079547;28;20203;-70
2022/01/30 08:17:33;;;;;;;16.20;5.82;;;4.50;99.90;;;;;;5078603;28;20211;-70
2022/01/30 08:20:00;;;;;;;13.48;5.80;;;4.50;99.90;;;;;;5077223;28;20204;-70
2022/01/30 08:22:29;;;;;;;13.20;4.65;;;4.50;99.90;;;;;;5077491;28;20687;-70
2022/01/30 08:24:55;;;;;;;16.02;6.18;;;4.50;99.90;;;;;;5076957;28;20200;-70
2022/01/30 08:27:22;;;;;;;18.73;6.43;;;4.40;99.90;;;;;;5077405;28;20253;-69
2022/01/30 08:29:48;;;;;;;23.98;6.45;;;4.50;99.90;;;;;;5077113;28;20204;-70
2022/01/30 08:32:15;;;;;;;16.17;6.38;;;4.40;99.90;;;;;;5076898;28;20239;-69
2022/01/30 08:34:41;;;;;;;16.48;7.95;;;4.50;99.90;;;;;;5076524;28;20200;-70
2022/01/30 08:37:08;;;;;;;32.15;19.05;;;4.50;99.90;;;;;;5076207;28;20199;-70
2022/01/30 08:39:34;;;;;;;19.92;7.75;;;4.50;99.90;;;;;;5077375;28;20263;-69
2022/01/30 08:42:01;;;;;;;17.83;10.43;;;4.50;99.90;;;;;;5077189;28;20245;-70
2022/01/30 08:44:27;;;;;;;18.35;7.18;;;4.50;99.90;;;;;;5076969;28;20220;-69
2022/01/30 08:46:54;;;;;;;18.10;7.00;;;4.60;99.90;;;;;;5076995;28;20724;-69
2022/01/30 08:49:20;;;;;;;23.45;9.60;;;4.80;99.90;;;;;;5076842;28;20196;-69
2022/01/30 08:51:47;;;;;;;21.73;7.43;;;4.90;99.90;;;;;;5076928;28;20200;-69
2022/01/30 08:54:13;;;;;;;25.63;8.82;;;5.10;99.90;;;;;;5077124;28;20260;-70
2022/01/30 08:56:39;;;;;;;32.50;12.88;;;5.30;99.90;;;;;;5076989;28;20273;-69
2022/01/30 08:59:06;;;;;;;15.65;5.85;;;5.50;99.90;;;;;;5076796;28;20264;-68
2022/01/30 09:01:33;;;;;;;40.78;14.95;;;5.60;99.90;;;;;;5076997;28;20208;-69
2022/01/30 09:04:00;;;;;;;14.77;5.68;;;5.70;99.90;;;;;;5075774;28;20220;-69
2022/01/30 09:06:26;;;;;;;28.48;11.40;;;5.70;99.90;;;;;;5077137;28;20216;-69
2022/01/30 09:08:52;;;;;;;29.05;11.75;;;5.80;99.90;;;;;;5077061;28;20604;-69
2022/01/30 09:11:19;;;;;;;20.75;8.07;;;5.80;99.90;;;;;;5075039;28;20539;-69
2022/01/30 09:13:45;;;;;;;12.05;6.15;;;5.90;99.90;;;;;;5076528;28;20200;-69
2022/01/30 09:16:12;;;;;;;25.73;12.50;;;6.00;99.90;;;;;;5076590;28;20607;-69
2022/01/30 09:18:39;;;;;;;17.52;7.47;;;6.10;99.90;;;;;;5076227;28;20647;-69
2022/01/30 09:21:05;;;;;;;22.27;8.82;;;6.20;99.90;;;;;;5075858;28;20207;-68
2022/01/30 09:23:31;;;;;;;18.17;5.60;;;6.30;99.90;;;;;;5075108;28;20752;-69
2022/01/30 09:25:58;;;;;;;13.15;4.72;;;6.30;99.90;;;;;;5075461;28;20300;-69
2022/01/30 09:28:24;;;;;;;18.42;6.85;;;6.20;99.90;;;;;;5076450;28;20660;-69
2022/01/30 09:30:51;;;;;;;15.27;7.00;;;6.20;99.90;;;;;;5076692;28;20196;-69
2022/01/30 09:33:17;;;;;;;34.95;14.07;;;6.20;99.90;;;;;;5076527;28;20245;-69
2022/01/30 09:35:44;;;;;;;17.73;8.63;;;6.40;99.90;;;;;;5075486;28;20628;-69
2022/01/30 09:38:10;;;;;;;19.38;6.20;;;6.60;99.90;;;;;;5075822;28;20206;-70
2022/01/30 09:40:37;;;;;;;17.60;7.55;;;6.60;99.90;;;;;;5076802;28;20264;-69
2022/01/30 09:43:04;;;;;;;17.48;6.68;;;6.50;99.90;;;;;;5076933;28;20277;-69
2022/01/30 09:45:31;;;;;;;19.50;8.52;;;6.40;99.90;;;;;;5076976;28;20196;-69
2022/01/30 09:47:57;;;;;;;14.88;5.13;;;6.30;99.90;;;;;;5078024;28;20690;-70
2022/01/30 09:50:24;;;;;;;27.45;12.43;;;6.20;99.90;;;;;;5078170;28;20230;-69
2022/01/30 09:52:50;;;;;;;13.40;5.90;;;6.20;99.90;;;;;;5078337;28;20646;-70
2022/01/30 09:55:17;;;;;;;17.67;8.23;;;6.40;99.90;;;;;;5078625;28;20581;-69
2022/01/30 09:57:44;;;;;;;19.75;6.13;;;6.50;99.90;;;;;;5078337;28;20280;-70
2022/01/30 10:00:11;;;;;;;18.98;5.65;;;6.60;99.90;;;;;;5077414;28;20225;-70
2022/01/30 10:02:42;;;;;;;15.93;5.68;;;6.70;99.90;;;;;;5075566;28;20210;-70
2022/01/30 10:05:11;;;;;;;14.95;4.80;;;6.90;99.90;;;;;;5076554;28;20196;-70
2022/01/30 10:07:53;;;;;;;8.40;4.13;;;6.90;99.90;;;;;;5075923;28;20216;-69
2022/01/30 10:10:23;;;;;;;12.55;4.13;;;7.10;99.90;;;;;;5077133;28;20184;-70
2022/01/30 10:13:03;;;;;;;10.60;4.47;;;7.10;99.90;;;;;;5076769;28;20742;-69
2022/01/30 10:15:30;;;;;;;11.93;4.15;;;7.20;99.90;;;;;;5076927;28;20204;-70
2022/01/30 10:17:56;;;;;;;17.52;4.00;;;7.40;99.90;;;;;;5077972;28;20200;-69
2022/01/30 10:20:26;;;;;;;8.80;3.30;;;7.70;99.90;;;;;;5077363;28;20291;-70
2022/01/30 10:22:55;;;;;;;45.80;18.45;;;7.60;99.90;;;;;;5078733;28;20220;-70
2022/01/30 10:25:28;;;;;;;10.57;4.95;;;7.70;99.90;;;;;;5077806;28;20263;-70
2022/01/30 10:28:10;;;;;;;7.30;3.42;;;7.70;99.90;;;;;;5077274;28;20196;-70
2022/01/30 10:30:46;;;;;;;12.63;3.53;;;7.50;99.90;;;;;;5076266;28;20214;-70
2022/01/30 10:33:14;;;;;;;10.35;2.95;;;7.60;99.90;;;;;;5076061;28;20207;-69
2022/01/30 10:35:52;;;;;;;10.68;3.15;;;7.70;99.90;;;;;;5074231;28;20229;-69
2022/01/30 10:38:47;;;;;;;6.60;2.95;;;7.80;99.90;;;;;;5076305;28;20218;-70
2022/01/30 10:41:18;;;;;;;19.98;5.82;;;7.60;99.90;;;;;;5074639;28;20210;-70
2022/01/30 10:44:03;;;;;;;6.80;3.50;;;7.50;99.90;;;;;;5076719;28;20219;-71
2022/01/30 10:46:32;;;;;;;10.70;3.70;;;7.80;99.90;;;;;;5076145;28;20645;-70
2022/01/30 10:49:00;;;;;;;13.25;4.28;;;7.90;99.90;;;;;;5076514;28;20282;-71
2022/01/30 10:51:29;;;;;;;14.23;3.95;;;7.80;99.90;;;;;;5076241;28;20230;-70
2022/01/30 10:54:06;;;;;;;8.75;4.10;;;8.20;99.90;;;;;;5076053;28;20247;-71
2022/01/30 10:56:34;;;;;;;8.73;3.92;;;8.20;99.90;;;;;;5076226;28;20342;-70
2022/01/30 10:59:20;;;;;;;9.50;3.03;;;8.40;99.90;;;;;;5076497;28;20568;-70
2022/01/30 11:01:50;;;;;;;8.18;3.50;;;8.30;99.90;;;;;;5074243;28;20291;-71
2022/01/30 11:04:26;;;;;;;9.38;4.30;;;8.50;99.90;;;;;;5075637;28;20238;-71
2022/01/30 11:06:54;;;;;;;5.80;3.30;;;8.30;99.90;;;;;;5077287;28;20215;-70
2022/01/30 11:09:29;;;;;;;13.35;3.47;;;8.10;99.90;;;;;;5078146;28;20200;-70
2022/01/30 11:12:01;;;;;;;13.85;3.25;;;7.80;99.90;;;;;;5077826;28;20199;-70
2022/01/30 11:17:18;;;;;;;10.07;3.75;;;7.90;99.90;;;;;;5077783;28;20251;-69
2022/01/30 11:19:48;;;;;;;9.07;3.85;;;7.90;99.90;;;;;;5076571;28;20203;-69
2022/01/30 11:22:16;;;;;;;12.27;3.47;;;7.70;99.90;;;;;;5077380;28;20203;-69
2022/01/30 11:24:47;;;;;;;16.15;5.22;;;7.80;99.90;;;;;;5077754;28;20223;-71
2022/01/30 11:27:16;;;;;;;12.55;4.60;;;8.00;99.90;;;;;;5077376;28;20200;-70
2022/01/30 11:29:45;;;;;;;9.20;3.95;;;8.20;99.90;;;;;;5077366;28;20204;-70
2022/01/30 11:32:12;;;;;;;23.08;9.93;;;8.30;99.90;;;;;;5077615;28;20723;-69
2022/01/30 11:34:40;;;;;;;7.95;3.95;;;8.00;99.90;;;;;;5077370;28;20238;-70
2022/01/30 11:37:09;;;;;;;11.68;4.53;;;7.80;99.90;;;;;;5076348;28;20208;-70
2022/01/30 11:39:41;;;;;;;13.52;4.45;;;8.10;99.90;;;;;;5075945;28;20200;-70
2022/01/30 11:42:11;;;;;;;8.68;4.13;;;8.40;99.90;;;;;;5075711;28;20249;-70
2022/01/30 11:44:46;;;;;;;11.15;5.32;;;8.60;99.90;;;;;;5075272;28;20268;-70
2022/01/30 11:47:12;;;;;;;13.38;4.28;;;8.50;99.90;;;;;;5076402;28;20192;-70
2022/01/30 11:49:41;;;;;;;15.55;3.53;;;8.10;99.90;;;;;;5079630;28;20200;-70
2022/01/30 11:52:10;;;;;;;7.25;5.15;;;7.90;99.90;;;;;;5081310;28;20236;-70
2022/01/30 11:54:43;;;;;;;14.48;4.35;;;7.60;99.90;;;;;;5081206;28;20600;-69
2022/01/30 11:57:21;;;;;;;14.60;9.50;;;7.60;99.90;;;;;;5081232;28;20238;-69
2022/01/30 11:59:55;;;;;;;8.43;2.80;;;8.30;99.90;;;;;;5080103;28;20273;-69
2022/01/30 12:02:35;;;;;;;9.23;3.75;;;9.20;99.90;;;;;;5080321;28;20268;-69
2022/01/30 12:05:05;;;;;;;8.65;4.05;;;8.30;99.90;;;;;;5079512;28;20621;-69
2022/01/30 12:07:46;;;;;;;12.38;5.25;;;8.40;99.90;;;;;;5077814;28;20246;-70
2022/01/30 12:10:21;;;;;;;9.95;3.85;;;8.30;99.90;;;;;;5078530;28;20200;-70
2022/01/30 12:12:59;;;;;;;14.18;8.30;;;8.10;99.90;;;;;;5079915;28;20276;-70
2022/01/30 12:15:45;;;;;;;15.65;9.20;;;8.10;99.90;;;;;;5080114;28;20207;-70
2022/01/30 12:18:17;;;;;;;10.68;3.65;;;8.10;99.90;;;;;;5079073;28;20208;-69
2022/01/30 12:21:12;;;;;;;9.30;3.97;;;8.10;99.90;;;;;;5077782;28;20291;-69
2022/01/30 12:23:41;;;;;;;9.82;3.90;;;8.20;99.90;;;;;;5078494;28;20273;-70
2022/01/30 12:26:16;;;;;;;9.82;3.88;;;8.20;99.90;;;;;;5077448;28;20218;-70
2022/01/30 12:28:52;;;;;;;9.50;4.43;;;9.10;99.90;;;;;;5077266;28;20190;-70
2022/01/30 12:31:38;;;;;;;7.10;2.97;;;9.80;99.90;;;;;;5076455;28;20187;-70
2022/01/30 12:34:08;;;;;;;8.63;2.85;;;8.80;99.90;;;;;;5076689;28;20222;-69
2022/01/30 12:36:41;;;;;;;9.48;3.15;;;8.80;99.90;;;;;;5076598;28;20185;-69
2022/01/30 12:39:14;;;;;;;11.60;4.10;;;8.70;99.90;;;;;;5076895;28;20184;-69
2022/01/30 12:41:41;;;;;;;16.67;4.10;;;9.10;99.90;;;;;;5076490;28;20662;-70
2022/01/30 12:44:13;;;;;;;12.88;5.25;;;9.10;99.90;;;;;;5075766;28;20226;-69
2022/01/30 12:46:49;;;;;;;8.02;4.53;;;8.70;99.90;;;;;;5075937;28;20192;-70
2022/01/30 12:49:18;;;;;;;11.52;4.15;;;8.50;99.90;;;;;;5075748;28;20203;-68
2022/01/30 12:51:56;;;;;;;9.38;5.85;;;8.50;99.90;;;;;;5075911;28;20199;-68
2022/01/30 12:54:29;;;;;;;9.82;3.67;;;8.80;99.90;;;;;;5075884;28;20211;-69
2022/01/30 12:56:56;;;;;;;7.97;4.40;;;9.80;99.90;;;;;;5075735;28;20203;-69
2022/01/30 12:59:26;;;;;;;8.45;4.65;;;10.00;99.90;;;;;;5075517;28;20202;-68
2022/01/30 13:02:05;;;;;;;11.30;3.60;;;10.30;99.90;;;;;;5075616;28;20206;-68
2022/01/30 13:04:32;;;;;;;9.13;4.00;;;10.60;99.90;;;;;;5075540;28;21039;-69
2022/01/30 13:06:58;;;;;;;10.90;5.67;;;10.80;99.90;;;;;;5075368;28;20638;-69
2022/01/30 13:09:26;;;;;;;9.10;4.60;;;11.80;99.90;;;;;;5075392;28;20610;-69
2022/01/30 13:11:55;;;;;;;12.93;5.27;;;10.30;99.90;;;;;;5075536;28;20613;-69
2022/01/30 13:14:30;;;;;;;10.47;4.07;;;9.60;99.90;;;;;;5075536;28;20649;-68
2022/01/30 13:16:57;;;;;;;9.33;3.77;;;9.10;99.90;;;;;;5074992;28;20631;-68
2022/01/30 13:19:35;;;;;;;10.80;4.50;;;9.30;99.90;;;;;;5075096;28;21234;-68
2022/01/30 13:22:04;;;;;;;11.55;4.13;;;9.80;99.90;;;;;;5075187;28;20616;-69
2022/01/30 13:24:31;;;;;;;8.27;3.50;;;10.00;99.90;;;;;;5075223;28;20211;-68
2022/01/30 13:27:01;;;;;;;7.05;3.83;;;9.10;99.90;;;;;;5075232;28;20208;-70
2022/01/30 13:29:31;;;;;;;22.27;9.65;;;9.20;99.90;;;;;;5075737;28;20261;-68
2022/01/30 13:31:59;;;;;;;12.25;4.35;;;10.00;99.90;;;;;;5075835;28;20203;-67
2022/01/30 13:34:30;;;;;;;9.15;3.83;;;9.60;99.90;;;;;;5075347;28;20227;-68
2022/01/30 13:37:02;;;;;;;6.50;4.20;;;10.00;99.90;;;;;;5075408;28;20200;-68
2022/01/30 13:40:02;;;;;;;11.38;4.68;;;10.20;99.90;;;;;;5075353;28;20626;-69
2022/01/30 13:42:43;;;;;;;8.73;4.33;;;10.10;99.90;;;;;;5075727;28;20192;-70
2022/01/30 13:47:55;;;;;;;9.98;4.25;;;9.80;99.90;;;;;;5075818;28;21022;-68
2022/01/30 13:50:27;;;;;;;13.15;4.35;;;9.30;99.90;;;;;;5075645;28;20191;-68
2022/01/30 13:53:08;;;;;;;6.82;4.35;;;8.80;99.90;;;;;;5075814;28;20307;-69
2022/01/30 13:55:49;;;;;;;7.55;4.35;;;8.40;99.90;;;;;;5075737;28;20215;-68
2022/01/30 13:58:16;;;;;;;8.63;3.88;;;8.60;99.90;;;;;;5075329;28;20256;-68
2022/01/30 14:00:43;;;;;;;7.55;3.90;;;8.50;99.90;;;;;;5075517;28;20229;-68